createdAt,value
2023-02-09T00:02:16.830Z,-4.21
2023-02-09T00:04:43.898Z,-4.24
2023-02-09T00:07:20.828Z,-4.14
2023-02-09T00:12:40.656Z,-4.06
2023-02-09T00:15:08.685Z,-4.07
2023-02-09T00:17:36.668Z,-4.07
2023-02-09T00:20:07.333Z,-3.85
2023-02-09T00:22:35.732Z,-3.96
2023-02-09T00:25:05.907Z,-3.94
2023-02-09T00:27:36.020Z,-3.98
2023-02-09T00:30:11.395Z,-3.96
2023-02-09T00:32:38.299Z,-4.04
2023-02-09T00:35:07.870Z,-4.00
2023-02-09T00:37:35.829Z,-3.98
2023-02-09T00:40:10.568Z,-4.11
2023-02-09T00:42:37.541Z,-4.16
2023-02-09T00:45:04.829Z,-4.14
2023-02-09T00:47:32.077Z,-4.25
2023-02-09T00:50:06.665Z,-4.36
2023-02-09T00:55:03.893Z,-4.38
2023-02-09T00:57:33.369Z,-4.37
2023-02-09T01:00:02.815Z,-4.50
2023-02-09T01:02:32.328Z,-4.48
2023-02-09T01:04:59.581Z,-4.54
2023-02-09T01:07:36.996Z,-4.37
2023-02-09T01:10:07.575Z,-4.47
2023-02-09T01:17:37.600Z,-4.59
2023-02-09T01:20:07.695Z,-4.54
2023-02-09T01:22:38.062Z,-4.52
2023-02-09T01:25:06.818Z,-4.49
2023-02-09T01:35:04.078Z,-4.71
2023-02-09T01:40:00.375Z,-4.91
2023-02-09T01:42:27.763Z,-4.89
2023-02-09T01:45:25.106Z,-4.98
2023-02-09T01:48:01.051Z,-5.02
2023-02-09T01:50:39.866Z,-5.11
2023-02-09T01:53:07.701Z,-5.19
2023-02-09T01:55:40.939Z,-5.25
2023-02-09T01:58:12.061Z,-5.29
2023-02-09T02:00:42.335Z,-5.25
2023-02-09T02:03:16.983Z,-5.18
2023-02-09T02:08:19.988Z,-5.07
2023-02-09T02:13:17.384Z,-5.14
2023-02-09T02:16:02.528Z,-5.22
2023-02-09T02:19:01.035Z,-5.21
2023-02-09T02:25:08.119Z,-5.29
2023-02-09T02:28:02.724Z,-5.37
2023-02-09T02:30:58.224Z,-5.34
2023-02-09T02:33:57.177Z,-5.13
2023-02-09T02:45:33.525Z,-4.81
2023-02-09T02:54:12.572Z,-4.81
2023-02-09T02:59:28.874Z,-4.82
2023-02-09T03:02:06.430Z,-4.87
2023-02-09T03:07:13.850Z,-5.08
2023-02-09T03:18:10.836Z,-5.56
2023-02-09T03:20:57.619Z,-5.64
2023-02-09T03:23:42.044Z,-5.73
2023-02-09T03:26:21.752Z,-5.76
2023-02-09T03:28:57.786Z,-5.86
2023-02-09T03:31:29.865Z,-5.94
2023-02-09T03:34:00.805Z,-5.95
2023-02-09T03:36:32.471Z,-5.98
2023-02-09T03:38:59.531Z,-6.07
2023-02-09T03:41:26.631Z,-6.09
2023-02-09T03:44:12.342Z,-6.07
2023-02-09T03:46:41.831Z,-6.13
2023-02-09T03:49:10.149Z,-6.17
2023-02-09T03:51:37.274Z,-6.17
2023-02-09T03:54:05.471Z,-6.19
2023-02-09T03:56:39.023Z,-6.24
2023-02-09T03:59:07.397Z,-6.24
2023-02-09T04:01:37.642Z,-6.26
2023-02-09T04:04:05.695Z,-6.33
2023-02-09T04:06:37.334Z,-6.33
2023-02-09T04:09:12.026Z,-6.35
2023-02-09T04:11:41.500Z,-6.35
2023-02-09T04:14:11.722Z,-6.41
2023-02-09T04:16:39.300Z,-6.44
2023-02-09T04:19:09.816Z,-6.54
2023-02-09T04:21:38.579Z,-6.54
2023-02-09T04:24:07.280Z,-6.59
2023-02-09T04:26:42.214Z,-6.56
2023-02-09T04:29:09.152Z,-6.55
2023-02-09T04:31:36.225Z,-6.60
2023-02-09T04:34:10.639Z,-6.57
2023-02-09T04:36:37.784Z,-6.59
2023-02-09T04:39:06.786Z,-6.59
2023-02-09T04:41:33.880Z,-6.58
2023-02-09T04:44:00.864Z,-6.61
2023-02-09T04:46:30.659Z,-6.56
2023-02-09T04:49:00.395Z,-6.55
2023-02-09T04:51:29.476Z,-6.54
2023-02-09T04:53:58.616Z,-6.55
2023-02-09T04:56:27.862Z,-6.50
2023-02-09T05:01:42.438Z,-6.58
2023-02-09T05:04:12.954Z,-6.53
2023-02-09T05:06:41.191Z,-6.55
2023-02-09T05:09:08.223Z,-6.67
2023-02-09T05:11:38.452Z,-6.77
2023-02-09T05:14:07.910Z,-6.82
2023-02-09T05:16:39.233Z,-6.83
2023-02-09T05:19:06.449Z,-6.84
2023-02-09T05:21:34.672Z,-6.93
2023-02-09T05:24:04.341Z,-6.98
2023-02-09T05:26:34.069Z,-6.99
2023-02-09T05:29:01.561Z,-7.08
2023-02-09T05:31:28.771Z,-7.08
2023-02-09T05:36:25.842Z,-7.16
2023-02-09T05:39:30.674Z,-7.18
2023-02-09T05:42:21.556Z,-7.16
2023-02-09T05:47:27.462Z,-7.12
2023-02-09T05:50:06.349Z,-7.16
2023-02-09T05:55:04.833Z,-7.27
2023-02-09T06:00:08.752Z,-7.33
2023-02-09T06:05:22.349Z,-7.10
2023-02-09T06:07:58.198Z,-6.95
2023-02-09T06:10:27.761Z,-6.66
2023-02-09T06:13:00.008Z,-6.61
2023-02-09T06:15:45.048Z,-6.50
2023-02-09T06:18:30.297Z,-6.43
2023-02-09T06:21:19.934Z,-6.48
2023-02-09T06:26:21.816Z,-6.37
2023-02-09T06:28:58.272Z,-6.29
2023-02-09T06:31:30.949Z,-6.24
2023-02-09T06:34:04.012Z,-6.24
2023-02-09T06:42:17.662Z,-6.29
2023-02-09T06:44:47.611Z,-6.26
2023-02-09T06:47:17.269Z,-6.19
2023-02-09T06:52:22.995Z,-6.23
2023-02-09T06:57:19.978Z,-6.21
2023-02-09T07:02:40.301Z,-6.24
2023-02-09T07:05:29.523Z,-6.09
2023-02-09T07:07:57.372Z,-6.00
2023-02-09T07:10:33.157Z,-5.96
2023-02-09T07:13:06.047Z,-6.05
2023-02-09T07:15:35.233Z,-6.06
2023-02-09T07:18:04.981Z,-6.01
2023-02-09T07:20:59.496Z,-5.99
2023-02-09T07:23:41.232Z,-5.96
2023-02-09T07:26:21.033Z,-5.90
2023-02-09T07:29:13.247Z,-5.93
2023-02-09T07:37:23.856Z,-5.64
2023-02-09T07:39:59.068Z,-5.62
2023-02-09T07:45:28.852Z,-5.58
2023-02-09T07:48:03.072Z,-5.59
2023-02-09T07:53:07.704Z,-5.51
2023-02-09T07:58:26.818Z,-5.29
2023-02-09T08:01:09.851Z,-5.21
2023-02-09T08:06:41.919Z,-5.03
2023-02-09T08:09:15.113Z,-5.04
2023-02-09T08:12:06.459Z,-4.98
2023-02-09T08:14:55.951Z,-4.98
2023-02-09T08:20:09.221Z,-4.79
2023-02-09T08:23:15.210Z,-4.77
2023-02-09T08:25:42.699Z,-4.73
2023-02-09T08:28:17.152Z,-4.72
2023-02-09T08:31:01.502Z,-4.63
2023-02-09T08:33:39.307Z,-4.61
2023-02-09T08:36:11.176Z,-4.56
2023-02-09T08:39:06.020Z,-4.44
2023-02-09T08:41:57.033Z,-4.46
2023-02-09T08:47:59.166Z,-4.42
2023-02-09T08:50:42.593Z,-4.26
2023-02-09T08:53:22.884Z,-4.13
2023-02-09T08:56:41.447Z,-4.07
2023-02-09T08:59:34.224Z,-4.06
2023-02-09T09:05:01.967Z,-3.82
2023-02-09T09:10:28.479Z,-3.73
2023-02-09T09:13:06.986Z,-3.73
2023-02-09T09:15:39.728Z,-3.57
2023-02-09T09:18:42.690Z,-3.44
2023-02-09T09:21:12.819Z,-3.37
2023-02-09T09:23:51.701Z,-3.26
2023-02-09T09:29:13.782Z,-3.09
2023-02-09T09:31:58.811Z,-3.02
2023-02-09T09:34:40.481Z,-3.01
2023-02-09T09:37:29.239Z,-2.87
2023-02-09T09:40:07.147Z,-2.80
2023-02-09T09:43:03.218Z,-2.70
2023-02-09T09:45:46.510Z,-2.66
2023-02-09T09:57:39.990Z,-2.27
2023-02-09T10:03:38.453Z,-2.13
2023-02-09T10:06:22.886Z,-2.00
2023-02-09T10:09:01.765Z,-1.96
2023-02-09T10:11:52.774Z,-1.82
2023-02-09T10:15:13.562Z,-1.76
2023-02-09T10:20:41.346Z,-1.60
2023-02-09T10:23:56.072Z,-1.42
2023-02-09T10:26:46.673Z,-1.27
2023-02-09T10:29:26.609Z,-1.17
2023-02-09T10:35:46.061Z,-1.10
2023-02-09T10:38:39.025Z,-1.09
2023-02-09T10:44:04.391Z,-0.88
2023-02-09T10:46:45.810Z,-0.80
2023-02-09T10:49:44.857Z,-0.78
2023-02-09T10:52:24.144Z,-0.71
2023-02-09T10:54:59.445Z,-0.65
2023-02-09T10:57:39.044Z,-0.59
2023-02-09T11:00:20.353Z,-0.42
2023-02-09T11:06:05.873Z,-0.33
2023-02-09T11:09:16.763Z,-0.12
2023-02-09T11:15:16.076Z,0.11
2023-02-09T11:18:05.461Z,0.13
2023-02-09T11:21:26.613Z,0.05
2023-02-09T11:24:07.697Z,0.14
2023-02-09T11:27:26.924Z,0.31
2023-02-09T11:37:25.018Z,0.59
2023-02-09T11:44:29.528Z,0.68
2023-02-09T11:47:07.640Z,0.84
2023-02-09T11:49:44.031Z,0.91
2023-02-09T11:55:52.761Z,0.96
2023-02-09T12:01:51.889Z,1.18
2023-02-09T12:04:50.410Z,1.22
2023-02-09T12:11:43.354Z,1.58
2023-02-09T12:15:09.335Z,1.65
2023-02-09T12:21:00.263Z,1.82
2023-02-09T12:28:41.577Z,1.76
2023-02-09T12:38:18.324Z,1.81
2023-02-09T12:41:08.089Z,1.91
2023-02-09T12:44:11.328Z,1.99
2023-02-09T12:46:57.273Z,2.07
2023-02-09T12:57:28.116Z,2.14
2023-02-09T13:00:03.931Z,2.13
2023-02-09T13:02:50.976Z,2.04
2023-02-09T13:05:39.753Z,1.91
2023-02-09T13:09:25.892Z,2.00
2023-02-09T13:12:39.991Z,2.02
2023-02-09T13:15:33.781Z,2.00
2023-02-09T13:22:07.186Z,2.01
2023-02-09T13:25:27.337Z,1.95
2023-02-09T13:34:42.008Z,1.89
2023-02-09T13:47:15.223Z,1.70
2023-02-09T13:52:49.950Z,1.79
2023-02-09T13:55:27.678Z,1.74
2023-02-09T13:58:52.817Z,1.72
2023-02-09T14:01:50.057Z,1.58
2023-02-09T14:07:47.512Z,1.54
2023-02-09T14:10:40.200Z,1.51
2023-02-09T14:14:15.300Z,1.51
2023-02-09T14:18:18.610Z,1.52
2023-02-09T14:40:31.528Z,1.55
2023-02-09T14:50:54.333Z,1.65
2023-02-09T14:53:27.189Z,1.58
2023-02-09T14:56:43.263Z,1.45
2023-02-09T14:59:57.783Z,1.52
2023-02-09T15:03:14.529Z,1.57
2023-02-09T15:05:54.956Z,1.51
2023-02-09T15:13:13.219Z,1.36
2023-02-09T15:16:36.368Z,1.37
2023-02-09T15:19:28.215Z,1.31
2023-02-09T15:30:39.646Z,1.30
2023-02-09T15:33:53.568Z,1.17
2023-02-09T15:44:00.132Z,1.04
2023-02-09T16:15:15.811Z,0.34
2023-02-09T16:18:30.321Z,0.28
2023-02-09T16:25:19.073Z,0.10
2023-02-09T16:32:20.443Z,0.02
2023-02-09T16:38:31.736Z,-0.14
2023-02-09T16:48:19.902Z,-0.47
2023-02-09T16:51:19.453Z,-0.54
2023-02-09T16:57:31.154Z,-0.62
2023-02-09T17:00:12.722Z,-0.76
2023-02-09T17:03:08.099Z,-0.87
2023-02-09T17:05:52.013Z,-0.94
2023-02-09T17:08:26.186Z,-0.93
2023-02-09T17:17:11.182Z,-1.13
2023-02-09T17:20:07.404Z,-1.17
2023-02-09T17:23:33.344Z,-1.21
2023-02-09T17:29:09.161Z,-1.14
2023-02-09T17:32:00.828Z,-1.22
2023-02-09T17:38:34.172Z,-1.30
2023-02-09T17:42:15.349Z,-1.39
2023-02-09T17:45:05.177Z,-1.47
2023-02-09T17:47:34.086Z,-1.62
2023-02-09T17:50:08.864Z,-1.70
2023-02-09T17:56:12.661Z,-1.91
2023-02-09T17:59:12.209Z,-1.92
2023-02-09T18:02:02.215Z,-1.93
2023-02-09T18:07:27.556Z,-1.90
2023-02-09T18:10:12.740Z,-1.98
2023-02-09T18:13:16.380Z,-2.00
2023-02-09T18:16:17.241Z,-2.02
2023-02-09T18:19:08.452Z,-1.73
2023-02-09T18:22:32.323Z,-1.79
2023-02-09T18:25:20.027Z,-1.81
2023-02-09T18:28:05.115Z,-1.89
2023-02-09T18:31:03.931Z,-1.91
2023-02-09T18:33:57.705Z,-1.90
2023-02-09T18:36:37.187Z,-1.89
2023-02-09T18:39:15.463Z,-1.85
2023-02-09T18:41:56.698Z,-1.83
2023-02-09T18:44:38.769Z,-1.83
2023-02-09T18:47:47.431Z,-1.79
2023-02-09T18:51:10.148Z,-1.82
2023-02-09T18:56:38.944Z,-1.91
2023-02-09T18:59:24.288Z,-2.03
2023-02-09T19:07:33.833Z,-2.09
2023-02-09T19:09:17.245Z,-2.20
2023-02-09T19:12:04.617Z,-2.31
2023-02-09T19:15:14.644Z,-2.44
2023-02-09T19:17:49.264Z,-2.48
2023-02-09T19:20:27.790Z,-2.53
2023-02-09T19:23:09.526Z,-2.58
2023-02-09T19:29:47.996Z,-2.17
2023-02-09T19:32:17.783Z,-2.24
2023-02-09T19:34:46.059Z,-2.28
2023-02-09T19:37:38.838Z,-2.30
2023-02-09T19:40:29.837Z,-2.41
2023-02-09T19:43:08.453Z,-2.41
2023-02-09T19:45:44.514Z,-2.36
2023-02-09T19:48:39.727Z,-2.32
2023-02-09T19:51:14.901Z,-2.20
2023-02-09T19:53:49.169Z,-2.21
2023-02-09T19:56:22.869Z,-2.28
2023-02-09T19:59:08.491Z,-2.28
2023-02-09T20:05:06.506Z,-2.17
2023-02-09T20:08:08.906Z,-2.17
2023-02-09T20:11:07.128Z,-2.30
2023-02-09T20:13:48.619Z,-2.33
2023-02-09T20:16:26.861Z,-2.34
2023-02-09T20:19:05.404Z,-2.33
2023-02-09T20:24:22.657Z,-2.38
2023-02-09T20:30:34.493Z,-2.43
2023-02-09T20:33:05.910Z,-2.54
2023-02-09T20:35:38.218Z,-2.61
2023-02-09T20:38:29.173Z,-2.69
2023-02-09T20:41:19.928Z,-2.77
2023-02-09T20:44:10.188Z,-2.84
2023-02-09T20:49:21.743Z,-2.89
2023-02-09T20:52:10.083Z,-2.91
2023-02-09T20:59:53.530Z,-3.00
2023-02-09T21:04:54.023Z,-3.01
2023-02-09T21:08:02.844Z,-3.09
2023-02-09T21:10:46.170Z,-3.21
2023-02-09T21:13:21.967Z,-3.26
2023-02-09T21:16:20.846Z,-3.34
2023-02-09T21:19:01.448Z,-3.35
2023-02-09T21:21:40.463Z,-3.41
2023-02-09T21:24:23.551Z,-3.29
2023-02-09T21:27:03.102Z,-3.26
2023-02-09T21:29:48.041Z,-3.13
2023-02-09T21:32:15.216Z,-3.04
2023-02-09T21:39:54.479Z,-3.17
2023-02-09T21:42:29.558Z,-3.02
2023-02-09T21:45:07.775Z,-3.02
2023-02-09T21:47:52.374Z,-3.03
2023-02-09T21:50:26.909Z,-3.00
2023-02-09T21:55:39.049Z,-3.17
2023-02-09T21:58:14.317Z,-3.16
2023-02-09T22:00:49.561Z,-3.19
2023-02-09T22:03:20.721Z,-3.18
2023-02-09T22:06:03.370Z,-3.24
2023-02-09T22:08:34.825Z,-3.25
2023-02-09T22:11:03.811Z,-3.32
2023-02-09T22:16:27.302Z,-3.29
2023-02-09T22:19:04.034Z,-3.25
2023-02-09T22:21:48.380Z,-3.32
2023-02-09T22:24:23.931Z,-3.44
2023-02-09T22:27:15.455Z,-3.43
2023-02-09T22:29:59.218Z,-3.42
2023-02-09T22:32:39.365Z,-3.49
2023-02-09T22:35:20.879Z,-3.54
2023-02-09T22:38:03.491Z,-3.60
2023-02-09T22:40:33.364Z,-3.62
2023-02-09T22:43:04.977Z,-3.67
2023-02-09T22:45:37.633Z,-3.54
2023-02-09T22:48:05.928Z,-3.51
2023-02-09T22:50:38.686Z,-3.48
2023-02-09T22:53:21.691Z,-3.53
2023-02-09T22:55:54.673Z,-3.48
2023-02-09T22:58:32.219Z,-3.59
2023-02-09T23:01:02.270Z,-3.60
2023-02-09T23:09:12.229Z,-3.63
2023-02-09T23:11:48.017Z,-3.73
2023-02-09T23:14:27.056Z,-3.72
2023-02-09T23:16:58.806Z,-3.81
2023-02-09T23:19:38.583Z,-3.80
2023-02-09T23:22:22.540Z,-3.86
2023-02-09T23:24:49.681Z,-3.85
2023-02-09T23:27:30.553Z,-3.83
2023-02-09T23:30:21.384Z,-4.06
2023-02-09T23:35:52.086Z,-4.04
2023-02-09T23:38:36.686Z,-4.01
2023-02-09T23:41:26.312Z,-4.08
2023-02-09T23:44:11.468Z,-4.08
2023-02-09T23:49:26.466Z,-4.11
2023-02-09T23:52:05.949Z,-4.17
2023-02-09T23:54:48.600Z,-4.15
2023-02-09T23:57:23.265Z,-4.24
2023-02-09T23:59:57.630Z,-4.38
